DONNELLS (DON)

Elevation: 4835' · STANISLAUS R basin · Operator: US Bureau of Reclamation

Provisional data, subject to change.
Query executed Thursday at 9:22:19   clock

Select a sensor type for a plot of data.
Note: Reservoir Flows are daily averages.

Earlier

Date STORAGE    RES CHG    OUTFLOW   
 AF   AF   CFS  
06/29/2016 61639 304 628
06/30/2016 61809 170 646
07/01/2016 61838 29 635
07/02/2016 61771 -67 641
07/03/2016 61567 -204 647
07/04/2016 61277 -290 652
07/05/2016 60912 -365 651
07/06/2016 60452 -460 652
07/07/2016 60167 -285 503
07/08/2016 60089 -78 549
07/09/2016 59929 -160 419
07/10/2016 59900 -29 350
07/11/2016 59859 -41 349
07/12/2016 59800 -59 309
07/13/2016 59796 -4 269
07/14/2016 59805 9 269
07/15/2016 59800 -5 268
07/16/2016 59764 -36 268
07/17/2016 59690 -74 274
07/18/2016 59435 -255 357
07/19/2016 59340 -95 321
07/20/2016 58997 -343 388
07/21/2016 58662 -335 364
07/22/2016 58047 -615 521
07/23/2016 57374 -673 514
07/24/2016 56853 -521 458
07/25/2016 56197 -656 503
07/26/2016 55479 -718 522
07/27/2016 54872 -607 478
07/28/2016 -- -- --

Later | Latest

Warning! This data is preliminary and subject to revision.

Show DON Map | Plot DON Data | 1 Month DON Data | Real-Time DON Data | DON Info